Time;durP1;ratioP1;P1;durP2;ratioP2;P2;SDS_P1;SDS_P2;PMS_P1;PMS_P2;Temp;Humidity;BMP_temperature;BMP_pressure;BME280_temperature;BME280_humidity;BME280_pressure;Samples;Min_cycle;Max_cycle;Signal;HPM_P1;HPM_P2
2023/12/23 00:00:34;;;;;;;19.02;3.83;;;5.40;99.90;;;;;;5072203;28;20044;-70
2023/12/23 00:03:00;;;;;;;19.88;3.42;;;5.30;99.90;;;;;;5072063;28;20052;-69
2023/12/23 00:05:26;;;;;;;17.23;4.28;;;5.30;99.90;;;;;;5070865;28;20052;-69
2023/12/23 00:07:52;;;;;;;23.80;3.60;;;5.20;99.90;;;;;;5054669;28;20486;-69
2023/12/23 00:10:17;;;;;;;14.15;3.50;;;5.20;99.90;;;;;;5072467;28;20048;-69
2023/12/23 00:12:43;;;;;;;11.73;2.95;;;5.20;99.90;;;;;;5073000;28;20097;-70
2023/12/23 00:15:09;;;;;;;12.93;3.03;;;5.20;99.90;;;;;;5059723;28;20079;-69
2023/12/23 00:17:35;;;;;;;10.18;2.65;;;5.20;99.90;;;;;;5058332;28;20051;-70
2023/12/23 00:20:01;;;;;;;11.52;2.45;;;5.10;99.90;;;;;;5073140;28;20431;-69
2023/12/23 00:22:26;;;;;;;18.63;3.65;;;5.10;99.90;;;;;;5086984;28;20487;-70
2023/12/23 00:24:52;;;;;;;16.92;3.35;;;5.10;99.90;;;;;;5073090;28;20387;-69
2023/12/23 00:27:17;;;;;;;16.38;3.15;;;5.10;99.90;;;;;;5071266;28;20161;-69
2023/12/23 00:29:43;;;;;;;13.52;2.65;;;5.10;99.90;;;;;;5071737;28;20048;-71
2023/12/23 00:32:09;;;;;;;13.38;2.97;;;5.10;99.90;;;;;;5072983;28;20094;-70
2023/12/23 00:34:34;;;;;;;14.73;3.55;;;5.10;99.90;;;;;;5071551;28;20040;-69
2023/12/23 00:37:00;;;;;;;17.58;3.53;;;5.10;99.90;;;;;;5071772;28;20048;-70
2023/12/23 00:39:26;;;;;;;18.23;3.05;;;5.20;99.90;;;;;;5068470;28;20053;-70
2023/12/23 00:41:52;;;;;;;13.77;2.92;;;5.10;99.90;;;;;;5072674;28;20117;-70
2023/12/23 00:44:17;;;;;;;15.77;3.35;;;5.20;99.90;;;;;;5072377;28;20048;-69
2023/12/23 00:46:44;;;;;;;16.67;3.78;;;5.20;99.90;;;;;;5066784;28;20048;-69
2023/12/23 00:49:09;;;;;;;25.83;4.82;;;5.10;99.90;;;;;;5072517;28;20048;-69
2023/12/23 00:51:35;;;;;;;17.20;3.80;;;5.10;99.90;;;;;;5071759;28;20047;-69
2023/12/23 00:54:01;;;;;;;17.33;3.80;;;5.20;99.90;;;;;;5071987;28;20051;-69
2023/12/23 00:56:26;;;;;;;17.15;3.67;;;5.10;99.90;;;;;;5069519;28;20041;-70
2023/12/23 00:58:52;;;;;;;21.52;4.10;;;5.10;99.90;;;;;;5070414;28;20048;-70
2023/12/23 01:01:18;;;;;;;17.58;4.43;;;5.20;99.90;;;;;;5071996;28;20498;-70
2023/12/23 01:03:43;;;;;;;18.85;4.03;;;5.10;99.90;;;;;;5072171;28;20452;-69
2023/12/23 01:06:09;;;;;;;18.35;4.07;;;5.20;99.90;;;;;;5072479;28;20040;-70
2023/12/23 01:08:35;;;;;;;24.73;5.20;;;5.20;99.90;;;;;;5062940;28;20045;-69
2023/12/23 01:11:01;;;;;;;27.20;4.38;;;5.20;99.90;;;;;;5070727;28;20079;-70
2023/12/23 01:13:27;;;;;;;31.77;5.25;;;5.20;99.90;;;;;;5065598;28;20498;-69
2023/12/23 01:15:52;;;;;;;22.77;3.88;;;5.20;99.90;;;;;;5059489;28;20044;-70
2023/12/23 01:18:18;;;;;;;22.27;4.63;;;5.30;99.90;;;;;;5065719;28;20044;-69
2023/12/23 01:20:44;;;;;;;19.42;3.58;;;5.30;99.90;;;;;;5062737;28;20411;-70
2023/12/23 01:23:10;;;;;;;21.60;3.60;;;5.30;99.90;;;;;;5068712;28;20101;-70
2023/12/23 01:25:36;;;;;;;16.30;4.22;;;5.40;99.90;;;;;;5054852;28;20045;-69
2023/12/23 01:28:04;;;;;;;22.40;4.57;;;5.40;99.90;;;;;;5066267;28;20127;-70
2023/12/23 01:30:36;;;;;;;21.20;3.60;;;5.40;99.90;;;;;;5066180;28;20131;-69
2023/12/23 01:33:02;;;;;;;26.73;4.82;;;5.50;99.90;;;;;;5068831;28;20048;-70
2023/12/23 01:35:28;;;;;;;17.73;3.25;;;5.50;99.90;;;;;;5061834;28;20044;-69
2023/12/23 01:37:53;;;;;;;23.88;3.60;;;5.50;99.90;;;;;;5070524;28;20407;-70
2023/12/23 01:40:19;;;;;;;16.00;3.63;;;5.50;99.90;;;;;;5069790;28;20045;-76
2023/12/23 01:42:45;;;;;;;14.70;3.53;;;5.50;99.90;;;;;;5071875;28;20647;-76
2023/12/23 01:45:11;;;;;;;22.58;4.03;;;5.60;99.90;;;;;;5073540;28;20048;-74
2023/12/23 01:47:41;;;;;;;19.52;3.97;;;5.60;99.90;;;;;;5072257;28;20044;-76
2023/12/23 01:50:09;;;;;;;14.95;3.25;;;5.60;99.90;;;;;;5072203;28;20488;-75
2023/12/23 01:52:36;;;;;;;20.83;3.58;;;5.60;99.90;;;;;;5071816;28;20449;-75
2023/12/23 01:55:03;;;;;;;14.40;3.22;;;5.70;99.90;;;;;;5072851;28;20131;-75
2023/12/23 01:57:29;;;;;;;16.52;2.83;;;5.70;99.90;;;;;;5072829;28;20060;-72
2023/12/23 01:59:55;;;;;;;16.52;2.53;;;5.70;99.90;;;;;;5073930;28;20048;-75
2023/12/23 02:02:21;;;;;;;12.48;2.88;;;5.70;99.90;;;;;;5073462;28;20048;-76
2023/12/23 02:04:47;;;;;;;15.35;3.50;;;5.80;99.90;;;;;;5072617;28;20512;-76
2023/12/23 02:07:13;;;;;;;18.75;2.88;;;5.80;99.90;;;;;;5072061;28;20189;-76
2023/12/23 02:09:39;;;;;;;13.25;2.70;;;5.80;99.90;;;;;;5054313;28;20048;-76
2023/12/23 02:12:39;;;;;;;15.48;2.72;;;5.80;99.90;;;;;;5073261;28;20093;-76
2023/12/23 02:15:14;;;;;;;16.33;2.78;;;5.80;99.90;;;;;;5072081;28;20506;-77
2023/12/23 02:17:41;;;;;;;11.20;2.78;;;5.80;99.90;;;;;;5073404;28;20131;-78
2023/12/23 02:20:07;;;;;;;18.08;3.65;;;5.80;99.90;;;;;;5073151;28;20045;-74
2023/12/23 02:22:33;;;;;;;11.35;2.58;;;5.80;99.90;;;;;;5072883;28;20433;-77
2023/12/23 02:24:59;;;;;;;7.38;2.10;;;5.80;99.90;;;;;;5074389;28;20041;-77
2023/12/23 02:27:38;;;;;;;8.60;2.38;;;5.80;99.90;;;;;;5055809;28;20047;-78
2023/12/23 02:30:05;;;;;;;14.02;2.08;;;5.80;99.90;;;;;;5072890;28;20052;-77
2023/12/23 02:32:32;;;;;;;13.40;2.60;;;5.80;99.90;;;;;;5072779;28;20418;-77
2023/12/23 02:34:57;;;;;;;13.57;2.70;;;5.80;99.90;;;;;;5071949;28;20048;-76
2023/12/23 02:37:23;;;;;;;15.70;2.53;;;5.80;99.90;;;;;;5071827;28;20044;-76
2023/12/23 02:39:49;;;;;;;13.43;3.03;;;5.70;99.90;;;;;;5070002;28;20041;-76
2023/12/23 02:42:14;;;;;;;13.57;2.58;;;5.80;99.90;;;;;;5071208;28;20391;-76
2023/12/23 02:44:40;;;;;;;12.82;2.53;;;5.80;99.90;;;;;;5072074;28;20045;-76
2023/12/23 02:47:06;;;;;;;11.18;2.42;;;5.70;99.90;;;;;;5072294;28;20052;-77
2023/12/23 02:49:31;;;;;;;17.42;3.47;;;5.80;99.90;;;;;;5070888;28;20044;-77
2023/12/23 02:51:57;;;;;;;9.32;2.78;;;5.70;99.90;;;;;;5071862;28;20181;-77
2023/12/23 02:54:23;;;;;;;16.02;3.30;;;5.70;99.90;;;;;;5072295;28;20044;-77
2023/12/23 02:56:48;;;;;;;12.70;2.97;;;5.70;99.90;;;;;;5070833;28;20048;-77
2023/12/23 02:59:14;;;;;;;18.05;3.38;;;5.60;99.90;;;;;;5072282;28;20052;-77
2023/12/23 03:01:39;;;;;;;11.57;2.35;;;5.70;99.90;;;;;;5071845;28;20074;-77
2023/12/23 03:04:05;;;;;;;12.38;2.53;;;5.70;99.90;;;;;;5075665;28;20107;-77
2023/12/23 03:06:32;;;;;;;14.38;3.00;;;5.60;99.90;;;;;;5058362;28;20075;-77
2023/12/23 03:08:57;;;;;;;12.98;2.55;;;5.60;99.90;;;;;;5074648;28;20115;-78
2023/12/23 03:11:23;;;;;;;9.02;2.28;;;5.50;99.90;;;;;;5076357;28;20079;-77
2023/12/23 03:13:49;;;;;;;11.02;2.33;;;5.50;99.90;;;;;;5074210;28;20131;-76
2023/12/23 03:16:16;;;;;;;16.65;2.83;;;5.50;99.90;;;;;;5074391;28;20040;-76
2023/12/23 03:18:42;;;;;;;12.63;2.05;;;5.50;99.90;;;;;;5073506;28;20052;-75
2023/12/23 03:21:08;;;;;;;15.52;2.40;;;5.50;99.90;;;;;;5075493;28;20052;-77
2023/12/23 03:23:33;;;;;;;8.35;2.22;;;5.40;99.90;;;;;;5075645;28;20040;-76
2023/12/23 03:26:00;;;;;;;13.90;2.63;;;5.40;99.90;;;;;;5057313;28;20048;-75
2023/12/23 03:28:25;;;;;;;13.45;2.90;;;5.40;99.90;;;;;;5058237;28;20055;-77
2023/12/23 03:30:51;;;;;;;13.30;2.63;;;5.50;99.90;;;;;;5073989;28;20056;-77
2023/12/23 03:33:17;;;;;;;9.55;2.60;;;5.40;99.90;;;;;;5075818;28;20131;-77
2023/12/23 03:35:42;;;;;;;12.77;2.15;;;5.40;99.90;;;;;;5073757;28;20037;-71
2023/12/23 03:38:08;;;;;;;10.98;2.35;;;5.40;99.90;;;;;;5075358;28;20474;-77
2023/12/23 03:40:34;;;;;;;12.00;2.70;;;5.40;99.90;;;;;;5074401;28;20468;-77
2023/12/23 03:43:00;;;;;;;12.88;2.42;;;5.40;99.90;;;;;;5074750;28;20102;-77
2023/12/23 03:45:25;;;;;;;12.57;2.28;;;5.30;99.90;;;;;;5075544;28;20480;-77
2023/12/23 03:47:51;;;;;;;19.17;2.38;;;5.40;99.90;;;;;;5057061;28;20055;-77
2023/12/23 03:50:17;;;;;;;12.95;2.35;;;5.40;99.90;;;;;;5074229;28;20037;-77
2023/12/23 03:52:43;;;;;;;11.73;2.72;;;5.40;99.90;;;;;;5074768;28;20052;-72
2023/12/23 03:55:11;;;;;;;10.95;2.03;;;5.30;99.90;;;;;;5073406;28;20051;-77
2023/12/23 03:57:37;;;;;;;12.98;2.25;;;5.30;99.90;;;;;;5073988;28;20091;-77
2023/12/23 04:00:06;;;;;;;12.52;2.70;;;5.30;99.90;;;;;;5073581;28;20479;-77
2023/12/23 04:02:32;;;;;;;13.23;2.60;;;5.30;99.90;;;;;;5057399;28;20117;-77
2023/12/23 04:04:58;;;;;;;9.43;2.20;;;5.30;99.90;;;;;;5073546;28;20128;-75
2023/12/23 04:07:23;;;;;;;11.15;2.42;;;5.30;99.90;;;;;;5073708;28;20402;-77
2023/12/23 04:09:50;;;;;;;10.85;2.03;;;5.30;99.90;;;;;;5072451;28;20055;-76
2023/12/23 04:12:16;;;;;;;13.88;2.30;;;5.20;99.90;;;;;;5073597;28;20190;-77
2023/12/23 04:14:41;;;;;;;13.57;2.10;;;5.40;99.90;;;;;;5055694;28;20120;-76
2023/12/23 04:17:07;;;;;;;10.75;2.13;;;5.20;99.90;;;;;;5072900;28;20157;-77
2023/12/23 04:19:33;;;;;;;7.60;1.95;;;5.20;99.90;;;;;;5074535;28;20051;-76
2023/12/23 04:21:58;;;;;;;10.82;2.38;;;5.20;99.90;;;;;;5056739;28;20049;-76
2023/12/23 04:24:26;;;;;;;9.93;2.03;;;5.30;99.90;;;;;;5074047;28;20051;-77
2023/12/23 04:26:52;;;;;;;7.75;1.92;;;5.30;99.90;;;;;;5072490;28;20407;-76
2023/12/23 04:29:18;;;;;;;13.85;2.22;;;5.30;99.90;;;;;;5072997;28;20052;-77
2023/12/23 04:31:44;;;;;;;9.82;1.85;;;5.30;99.90;;;;;;5074528;28;20436;-76
2023/12/23 04:34:10;;;;;;;10.05;1.98;;;5.30;99.90;;;;;;5073345;28;20068;-76
2023/12/23 04:36:36;;;;;;;9.68;1.90;;;5.40;99.90;;;;;;5074179;28;20055;-76
2023/12/23 04:39:05;;;;;;;10.35;2.10;;;5.20;99.90;;;;;;5072344;28;20049;-77
2023/12/23 04:41:32;;;;;;;6.85;1.63;;;5.30;99.90;;;;;;5073652;28;20087;-74
2023/12/23 04:43:58;;;;;;;6.70;1.60;;;5.20;99.90;;;;;;5073089;28;20048;-77
2023/12/23 04:46:24;;;;;;;7.65;1.75;;;5.20;99.90;;;;;;5074127;28;20135;-78
2023/12/23 04:48:49;;;;;;;13.15;2.00;;;5.20;99.90;;;;;;5056036;28;20041;-76
2023/12/23 04:51:15;;;;;;;9.05;1.80;;;5.30;99.90;;;;;;5072355;28;20074;-76
2023/12/23 04:53:42;;;;;;;5.80;1.90;;;5.30;99.90;;;;;;5072605;28;20123;-76
2023/12/23 04:56:08;;;;;;;12.32;2.00;;;5.30;99.90;;;;;;5073297;28;20044;-76
2023/12/23 04:58:35;;;;;;;8.93;1.63;;;5.30;99.90;;;;;;5073648;28;20055;-76
2023/12/23 05:01:01;;;;;;;10.68;2.08;;;5.20;99.90;;;;;;5071848;28;20060;-76
2023/12/23 05:03:31;;;;;;;6.55;1.55;;;5.30;99.90;;;;;;5073616;28;20052;-76
2023/12/23 05:05:57;;;;;;;6.72;1.88;;;5.30;99.90;;;;;;5072848;28;20048;-75
2023/12/23 05:08:22;;;;;;;11.95;2.30;;;5.20;99.90;;;;;;5073413;28;20185;-76
2023/12/23 05:10:48;;;;;;;9.80;1.73;;;5.20;99.90;;;;;;5072231;28;20084;-76
2023/12/23 05:13:14;;;;;;;9.55;1.60;;;5.20;99.90;;;;;;5072144;28;20040;-76
2023/12/23 05:15:40;;;;;;;5.20;1.30;;;5.30;99.90;;;;;;5071825;28;20514;-76
2023/12/23 05:18:05;;;;;;;6.22;1.80;;;5.30;99.90;;;;;;5071833;28;20040;-77
2023/12/23 05:20:31;;;;;;;8.20;1.70;;;5.20;99.90;;;;;;5074262;28;20090;-77
2023/12/23 05:22:57;;;;;;;8.98;1.88;;;5.30;99.90;;;;;;5072366;28;20052;-72
2023/12/23 05:25:22;;;;;;;9.43;1.75;;;5.20;99.90;;;;;;5073728;28;20080;-76
2023/12/23 05:27:48;;;;;;;9.52;1.58;;;5.20;99.90;;;;;;5072544;28;20403;-76
2023/12/23 05:30:14;;;;;;;7.25;1.50;;;5.20;99.90;;;;;;5072432;28;20080;-76
2023/12/23 05:32:40;;;;;;;4.43;1.38;;;5.30;99.90;;;;;;5072956;28;20130;-76
2023/12/23 05:35:06;;;;;;;6.05;1.60;;;5.20;99.90;;;;;;5072560;28;20087;-76
2023/12/23 05:37:33;;;;;;;5.13;1.63;;;5.40;99.90;;;;;;5072846;28;20074;-76
2023/12/23 05:39:59;;;;;;;7.25;1.48;;;5.30;99.90;;;;;;5071896;28;20472;-71
2023/12/23 05:42:25;;;;;;;6.80;1.85;;;5.30;99.90;;;;;;5072925;28;20040;-75
2023/12/23 05:44:51;;;;;;;6.25;1.77;;;5.40;99.90;;;;;;5073124;28;20048;-76
2023/12/23 05:47:17;;;;;;;7.32;1.70;;;5.40;99.90;;;;;;5071215;28;20086;-76
2023/12/23 05:49:43;;;;;;;6.00;2.10;;;5.30;99.90;;;;;;5073181;28;20048;-76
2023/12/23 05:52:08;;;;;;;10.32;1.60;;;5.40;99.90;;;;;;5072705;28;20067;-76
2023/12/23 05:54:34;;;;;;;8.35;1.55;;;5.40;99.90;;;;;;5070986;28;20048;-75
2023/12/23 05:57:00;;;;;;;6.88;1.73;;;5.30;99.90;;;;;;5071331;28;20079;-72
2023/12/23 05:59:25;;;;;;;6.30;1.85;;;5.40;99.90;;;;;;5071776;28;20048;-76
2023/12/23 06:01:52;;;;;;;9.13;1.73;;;5.30;99.90;;;;;;5071960;28;20447;-76
2023/12/23 06:04:18;;;;;;;5.05;1.40;;;5.40;99.90;;;;;;5072499;28;20465;-76
2023/12/23 06:06:44;;;;;;;6.70;1.58;;;5.30;99.90;;;;;;5072541;28;20136;-76
2023/12/23 06:09:09;;;;;;;6.95;1.38;;;5.40;99.90;;;;;;5054565;28;20052;-74
2023/12/23 06:11:35;;;;;;;3.05;1.10;;;5.30;99.90;;;;;;5055537;28;20147;-76
2023/12/23 06:14:01;;;;;;;4.18;1.27;;;5.30;99.90;;;;;;5071669;28;20040;-76
2023/12/23 06:16:27;;;;;;;4.90;1.20;;;5.20;99.90;;;;;;5070618;28;20048;-75
2023/12/23 06:18:52;;;;;;;6.35;1.48;;;5.10;99.90;;;;;;5072980;28;20109;-75
2023/12/23 06:21:18;;;;;;;4.97;1.50;;;5.10;99.90;;;;;;5054284;28;20049;-76
2023/12/23 06:23:44;;;;;;;7.50;1.65;;;5.10;99.90;;;;;;5071651;28;20056;-76
2023/12/23 06:26:10;;;;;;;7.18;1.58;;;5.10;99.90;;;;;;5072372;28;20099;-75
2023/12/23 06:28:39;;;;;;;4.57;1.15;;;5.20;99.90;;;;;;5071550;28;20535;-76
2023/12/23 06:31:05;;;;;;;6.15;1.83;;;5.20;99.90;;;;;;5072026;28;20139;-71
2023/12/23 06:33:30;;;;;;;3.55;1.48;;;5.10;99.90;;;;;;5072019;28;20061;-77
2023/12/23 06:35:56;;;;;;;5.18;1.42;;;5.10;99.90;;;;;;5054790;28;20052;-76
2023/12/23 06:38:22;;;;;;;3.65;1.17;;;5.20;99.90;;;;;;5073370;28;20524;-75
2023/12/23 06:40:47;;;;;;;5.95;1.50;;;5.10;99.90;;;;;;5057203;28;20044;-75
2023/12/23 06:43:13;;;;;;;4.40;1.17;;;5.10;99.90;;;;;;5075398;28;20133;-76
2023/12/23 06:45:39;;;;;;;4.72;1.35;;;5.00;99.90;;;;;;5076299;28;20107;-76
2023/12/23 06:48:05;;;;;;;6.00;1.60;;;5.00;99.90;;;;;;5075473;28;20048;-75
2023/12/23 06:50:30;;;;;;;2.35;1.00;;;5.10;99.90;;;;;;5074156;28;20432;-75
2023/12/23 06:52:56;;;;;;;3.78;1.27;;;5.10;99.90;;;;;;5074301;28;20048;-75
2023/12/23 06:55:22;;;;;;;5.18;1.10;;;5.00;99.90;;;;;;5074100;28;20094;-76
2023/12/23 06:57:48;;;;;;;6.30;1.20;;;5.00;99.90;;;;;;5074440;28;20084;-75
2023/12/23 07:00:14;;;;;;;3.33;1.13;;;5.00;99.90;;;;;;5075436;28;20044;-75
2023/12/23 07:02:40;;;;;;;3.60;1.35;;;4.90;99.90;;;;;;5074304;28;20101;-75
2023/12/23 07:05:06;;;;;;;3.63;1.17;;;5.10;99.90;;;;;;5057759;28;20124;-74
2023/12/23 07:07:31;;;;;;;3.03;1.00;;;5.10;99.90;;;;;;5075287;28;20087;-75
2023/12/23 07:09:59;;;;;;;5.57;2.80;;;5.00;99.90;;;;;;5074550;28;20372;-76
2023/12/23 07:12:25;;;;;;;4.93;1.58;;;5.00;99.90;;;;;;5057787;28;20052;-75
2023/12/23 07:14:50;;;;;;;4.22;1.52;;;5.10;99.90;;;;;;5075911;28;20509;-75
2023/12/23 07:17:16;;;;;;;5.63;1.48;;;5.00;99.90;;;;;;5074308;28;20135;-73
2023/12/23 07:19:42;;;;;;;4.30;1.80;;;5.00;99.90;;;;;;5074259;28;20391;-76
2023/12/23 07:22:08;;;;;;;8.13;1.30;;;5.00;99.90;;;;;;5075533;28;20044;-76
2023/12/23 07:24:33;;;;;;;4.50;1.45;;;5.00;99.90;;;;;;5074529;28;20654;-75
2023/12/23 07:27:02;;;;;;;3.17;1.20;;;5.00;99.90;;;;;;5074790;28;20051;-75
2023/12/23 07:29:28;;;;;;;4.38;1.23;;;5.10;99.90;;;;;;5074411;28;20049;-75
2023/12/23 07:31:53;;;;;;;3.30;1.08;;;5.00;99.90;;;;;;5074871;28;20466;-75
2023/12/23 07:34:19;;;;;;;4.95;1.42;;;5.00;99.90;;;;;;5073785;28;20088;-73
2023/12/23 07:36:45;;;;;;;5.70;1.30;;;5.00;99.90;;;;;;5074413;28;20086;-75
2023/12/23 07:39:10;;;;;;;3.17;1.25;;;5.10;99.90;;;;;;5074290;28;20105;-76
2023/12/23 07:41:36;;;;;;;3.10;1.10;;;5.00;99.90;;;;;;5074368;28;20054;-75
2023/12/23 07:44:02;;;;;;;2.72;1.10;;;5.10;99.90;;;;;;5075024;28;20131;-76
2023/12/23 07:46:27;;;;;;;1.98;1.23;;;5.00;99.90;;;;;;5074838;28;20040;-76
2023/12/23 07:48:53;;;;;;;1.98;1.30;;;5.10;99.90;;;;;;5073413;28;20451;-75
2023/12/23 07:51:21;;;;;;;2.83;1.40;;;4.90;99.90;;;;;;5073213;28;20097;-73
2023/12/23 07:53:46;;;;;;;3.90;1.50;;;4.90;99.90;;;;;;5074692;28;20048;-75
2023/12/23 07:56:12;;;;;;;2.95;1.17;;;5.00;99.90;;;;;;5074538;28;20047;-74
2023/12/23 07:58:38;;;;;;;3.45;1.23;;;4.90;99.90;;;;;;5072720;28;20228;-74
2023/12/23 08:01:03;;;;;;;5.72;1.30;;;5.00;99.90;;;;;;5074269;28;20127;-72
2023/12/23 08:03:29;;;;;;;2.72;1.17;;;4.90;99.90;;;;;;5073038;28;20051;-73
2023/12/23 08:05:55;;;;;;;2.25;1.08;;;5.00;99.90;;;;;;5073251;28;20183;-73
2023/12/23 08:08:20;;;;;;;4.13;1.38;;;5.00;99.90;;;;;;5074127;28;20475;-70
2023/12/23 08:10:46;;;;;;;3.53;1.23;;;5.00;99.90;;;;;;5074412;28;20398;-79
2023/12/23 08:13:12;;;;;;;1.95;1.75;;;5.10;99.90;;;;;;5073300;28;20048;-77
2023/12/23 08:15:37;;;;;;;1.90;1.30;;;5.00;99.90;;;;;;5075056;28;20488;-79
2023/12/23 08:18:03;;;;;;;1.77;1.20;;;5.10;99.90;;;;;;5076570;28;20076;-79
2023/12/23 08:20:29;;;;;;;2.10;1.15;;;5.10;99.90;;;;;;5075712;28;20063;-81
2023/12/23 08:22:55;;;;;;;2.33;1.27;;;5.20;99.90;;;;;;5073925;28;20044;-75
2023/12/23 08:25:20;;;;;;;2.92;1.17;;;5.00;99.90;;;;;;5072558;28;20044;-82
2023/12/23 08:27:46;;;;;;;2.75;0.98;;;5.00;99.90;;;;;;5074448;28;20086;-79
2023/12/23 08:30:12;;;;;;;2.05;1.02;;;5.00;99.90;;;;;;5073855;28;20044;-80
2023/12/23 08:32:38;;;;;;;1.58;1.10;;;5.10;99.90;;;;;;5073212;28;20056;-80
2023/12/23 08:35:04;;;;;;;1.30;0.90;;;5.10;99.90;;;;;;5074178;28;20043;-80
2023/12/23 08:37:29;;;;;;;3.78;1.50;;;5.00;99.90;;;;;;5075035;28;20106;-80
2023/12/23 08:39:55;;;;;;;3.03;1.88;;;5.10;99.90;;;;;;5073875;28;20178;-80
2023/12/23 08:42:21;;;;;;;3.10;1.73;;;5.10;99.90;;;;;;5074820;28;20041;-80
2023/12/23 08:44:47;;;;;;;3.20;1.63;;;5.00;99.90;;;;;;5072955;28;20063;-79
2023/12/23 08:47:13;;;;;;;3.00;1.45;;;5.10;99.90;;;;;;5074978;28;20110;-81
2023/12/23 08:49:39;;;;;;;1.98;1.33;;;5.10;99.90;;;;;;5074224;28;20492;-80
2023/12/23 08:52:06;;;;;;;1.23;1.13;;;5.00;99.90;;;;;;5074481;28;20442;-79
2023/12/23 08:54:32;;;;;;;1.88;1.27;;;5.10;99.90;;;;;;5057016;28;20075;-77
2023/12/23 08:56:58;;;;;;;2.85;1.23;;;5.10;99.90;;;;;;5074290;28;20055;-74
2023/12/23 08:59:23;;;;;;;3.20;1.42;;;5.10;99.90;;;;;;5073937;28;20048;-75
2023/12/23 09:01:49;;;;;;;1.95;1.20;;;5.20;99.90;;;;;;5071378;28;20109;-74
2023/12/23 09:04:16;;;;;;;5.72;1.60;;;5.20;99.90;;;;;;5072687;28;20048;-75
2023/12/23 09:06:42;;;;;;;2.60;1.50;;;5.10;99.90;;;;;;5071693;28;20186;-74
2023/12/23 09:09:07;;;;;;;2.22;1.58;;;5.20;99.90;;;;;;5072885;28;20131;-75
2023/12/23 09:11:33;;;;;;;2.97;1.35;;;5.20;99.90;;;;;;5073836;28;20040;-73
2023/12/23 09:13:59;;;;;;;1.60;1.17;;;5.20;99.90;;;;;;5074164;28;20071;-74
2023/12/23 09:16:24;;;;;;;1.92;1.35;;;5.40;99.90;;;;;;5072023;28;20040;-75
2023/12/23 09:18:50;;;;;;;2.55;1.20;;;5.30;99.90;;;;;;5072006;28;20189;-74
2023/12/23 09:21:16;;;;;;;2.72;1.50;;;5.30;99.90;;;;;;5055732;28;20043;-73
2023/12/23 09:23:41;;;;;;;3.92;1.40;;;5.40;99.90;;;;;;5071511;28;20040;-74
2023/12/23 09:26:07;;;;;;;3.70;1.30;;;5.40;99.90;;;;;;5072405;28;20055;-74
2023/12/23 09:28:33;;;;;;;3.28;1.50;;;5.30;99.90;;;;;;5071880;28;20372;-75
2023/12/23 09:30:58;;;;;;;4.15;1.45;;;5.40;99.90;;;;;;5073026;28;20057;-76
2023/12/23 09:33:24;;;;;;;2.97;1.20;;;5.30;99.90;;;;;;5071580;28;20093;-75
2023/12/23 09:35:50;;;;;;;2.47;1.10;;;5.30;99.90;;;;;;5071752;28;20045;-75
2023/12/23 09:38:15;;;;;;;1.42;0.93;;;5.40;99.90;;;;;;5071817;28;20045;-75
2023/12/23 09:40:41;;;;;;;1.63;1.10;;;5.50;99.90;;;;;;5072957;28;20511;-75
2023/12/23 09:43:08;;;;;;;1.83;1.05;;;5.40;99.90;;;;;;5072075;28;20479;-76
2023/12/23 09:45:36;;;;;;;3.58;1.20;;;5.40;99.90;;;;;;5072895;28;20045;-75
2023/12/23 09:48:03;;;;;;;2.10;1.40;;;5.50;99.90;;;;;;5073166;28;20044;-76
2023/12/23 09:50:28;;;;;;;2.72;1.20;;;5.50;99.90;;;;;;5071556;28;20101;-75
2023/12/23 09:52:58;;;;;;;3.42;1.50;;;5.40;99.90;;;;;;5071234;28;20677;-76
2023/12/23 09:55:25;;;;;;;3.15;1.40;;;5.50;99.90;;;;;;5072031;28;20055;-78
2023/12/23 09:57:51;;;;;;;2.03;1.50;;;5.60;99.90;;;;;;5072590;28;20048;-76
2023/12/23 10:00:17;;;;;;;3.35;1.77;;;5.50;99.90;;;;;;5071819;28;20467;-76
2023/12/23 10:02:43;;;;;;;3.10;1.73;;;5.60;99.90;;;;;;5072057;28;20052;-79
2023/12/23 10:05:09;;;;;;;6.15;1.70;;;5.50;99.90;;;;;;5071660;28;20047;-79
2023/12/23 10:07:34;;;;;;;2.50;1.40;;;5.70;99.90;;;;;;5071608;28;20048;-75
2023/12/23 10:10:00;;;;;;;2.80;1.65;;;5.60;99.90;;;;;;5071102;28;20135;-73
2023/12/23 10:12:26;;;;;;;3.22;1.83;;;5.60;99.90;;;;;;5054639;28;20068;-74
2023/12/23 10:14:52;;;;;;;4.78;1.70;;;5.60;99.90;;;;;;5074911;28;20044;-74
2023/12/23 10:17:18;;;;;;;3.90;1.85;;;5.70;99.90;;;;;;5076768;28;20075;-74
2023/12/23 10:19:46;;;;;;;4.03;1.77;;;5.70;99.90;;;;;;5076383;28;20044;-73
2023/12/23 10:22:12;;;;;;;2.67;1.40;;;5.60;99.90;;;;;;5078627;28;20044;-75
2023/12/23 10:24:38;;;;;;;3.22;1.40;;;5.60;99.90;;;;;;5076723;28;20074;-74
2023/12/23 10:27:04;;;;;;;1.77;1.20;;;5.60;99.90;;;;;;5075673;28;20083;-74
2023/12/23 10:29:33;;;;;;;3.15;1.60;;;5.60;99.90;;;;;;5075564;28;20056;-74
2023/12/23 10:32:04;;;;;;;1.73;1.40;;;5.60;99.90;;;;;;5074892;28;20063;-75
2023/12/23 10:34:49;;;;;;;2.30;1.50;;;5.70;99.90;;;;;;5075397;28;20389;-71
2023/12/23 10:37:15;;;;;;;2.92;1.60;;;5.60;99.90;;;;;;5074925;28;20517;-73
2023/12/23 10:40:09;;;;;;;2.38;1.50;;;5.60;99.90;;;;;;5075009;28;20399;-73
2023/12/23 10:42:37;;;;;;;2.65;1.77;;;5.80;99.90;;;;;;5069945;28;20415;-73
2023/12/23 10:45:04;;;;;;;2.60;1.77;;;5.70;99.90;;;;;;5075638;28;20089;-73
2023/12/23 10:47:33;;;;;;;2.65;1.50;;;5.80;99.90;;;;;;5075248;28;20410;-75
2023/12/23 10:50:00;;;;;;;2.30;1.50;;;5.70;99.90;;;;;;5074951;28;20052;-76
2023/12/23 10:52:26;;;;;;;2.47;1.60;;;5.70;99.90;;;;;;5075419;28;20048;-73
2023/12/23 10:54:52;;;;;;;2.80;1.70;;;5.80;99.90;;;;;;5075722;28;20045;-74
2023/12/23 10:57:21;;;;;;;2.33;1.50;;;5.80;99.90;;;;;;5075512;28;20074;-76
2023/12/23 10:59:47;;;;;;;2.50;1.60;;;5.80;99.90;;;;;;5057497;28;20491;-74
2023/12/23 11:02:15;;;;;;;2.45;1.55;;;5.80;99.90;;;;;;5075927;28;20057;-73
2023/12/23 11:04:45;;;;;;;2.42;1.70;;;5.90;99.90;;;;;;5076114;28;20044;-73
2023/12/23 11:07:13;;;;;;;2.83;1.90;;;5.80;99.90;;;;;;5075959;28;20045;-73
2023/12/23 11:09:41;;;;;;;2.42;1.67;;;5.90;99.90;;;;;;5074683;28;20044;-73
2023/12/23 11:12:08;;;;;;;3.75;1.92;;;5.80;99.90;;;;;;5074841;28;20109;-73
2023/12/23 11:14:35;;;;;;;3.38;2.10;;;5.90;99.90;;;;;;5074442;28;20395;-73
2023/12/23 11:17:00;;;;;;;3.08;1.83;;;5.80;99.90;;;;;;5058082;28;20063;-71
2023/12/23 11:19:26;;;;;;;3.00;1.90;;;5.80;99.90;;;;;;5057927;28;20496;-71
2023/12/23 11:22:22;;;;;;;2.95;1.70;;;5.90;99.90;;;;;;5074967;28;20201;-72
2023/12/23 11:24:47;;;;;;;;;;;5.90;99.90;;;;;;5075461;28;20044;-71
2023/12/23 11:27:33;;;;;;;2.55;1.80;;;5.80;99.90;;;;;;5074252;28;20410;-71
2023/12/23 11:30:08;;;;;;;3.03;2.20;;;5.80;99.90;;;;;;5073930;28;20052;-72
2023/12/23 11:32:36;;;;;;;3.10;1.80;;;5.80;99.90;;;;;;5074069;28;20481;-72
2023/12/23 11:35:12;;;;;;;2.72;1.83;;;5.90;99.90;;;;;;5039965;28;20044;-70
2023/12/23 11:37:51;;;;;;;3.08;1.85;;;5.90;99.90;;;;;;5074757;28;20048;-70
2023/12/23 11:40:18;;;;;;;2.78;1.67;;;6.00;99.90;;;;;;5073234;28;20048;-70
2023/12/23 11:42:44;;;;;;;2.17;1.50;;;6.00;99.90;;;;;;5056129;28;20135;-70
2023/12/23 11:45:13;;;;;;;2.38;1.60;;;6.00;99.90;;;;;;5073980;28;20080;-71
2023/12/23 11:47:39;;;;;;;2.53;1.60;;;6.10;99.90;;;;;;5072991;28;20503;-71
2023/12/23 11:50:09;;;;;;;2.67;1.40;;;6.00;99.90;;;;;;5072881;28;20052;-71
2023/12/23 11:52:35;;;;;;;1.40;1.30;;;6.10;99.90;;;;;;5073992;28;20044;-71
2023/12/23 11:55:05;;;;;;;2.20;1.40;;;6.10;99.90;;;;;;5072447;28;20123;-71
2023/12/23 11:57:31;;;;;;;2.05;1.40;;;6.00;99.90;;;;;;5073013;28;20040;-67
2023/12/23 12:00:02;;;;;;;2.08;1.45;;;6.10;99.90;;;;;;5072523;28;20044;-67
2023/12/23 12:02:28;;;;;;;2.97;1.73;;;6.10;99.90;;;;;;5073707;28;20041;-67
2023/12/23 12:04:54;;;;;;;2.20;1.60;;;6.20;99.90;;;;;;5073300;28;20123;-69
2023/12/23 12:07:20;;;;;;;3.38;1.60;;;6.20;99.90;;;;;;5073198;28;20075;-69
2023/12/23 12:09:46;;;;;;;2.05;1.55;;;6.20;99.90;;;;;;5056065;28;20055;-67
2023/12/23 12:12:12;;;;;;;2.28;1.63;;;6.20;99.90;;;;;;5071623;28;20199;-67
2023/12/23 12:14:38;;;;;;;1.73;1.40;;;6.30;99.90;;;;;;5072067;28;20139;-66
2023/12/23 12:17:06;;;;;;;3.30;1.70;;;6.20;99.90;;;;;;5054917;28;20177;-67
2023/12/23 12:19:31;;;;;;;1.70;1.30;;;6.20;99.90;;;;;;5073173;28;20048;-66
2023/12/23 12:21:57;;;;;;;2.83;1.52;;;6.20;99.90;;;;;;5071727;28;20445;-69
2023/12/23 12:24:23;;;;;;;2.60;1.95;;;6.40;99.90;;;;;;5071369;28;20127;-66
2023/12/23 12:26:52;;;;;;;4.70;2.40;;;6.30;99.90;;;;;;5072804;28;20119;-65
2023/12/23 12:29:20;;;;;;;2.55;1.90;;;6.40;99.90;;;;;;5072585;28;20518;-65
2023/12/23 12:31:46;;;;;;;2.38;1.80;;;6.30;99.90;;;;;;5033872;28;1121428;-66
2023/12/23 12:34:12;;;;;;;2.33;1.75;;;6.40;99.90;;;;;;5072056;28;20083;-66
2023/12/23 12:36:38;;;;;;;2.30;1.75;;;6.40;99.90;;;;;;5072921;28;20040;-66
2023/12/23 12:39:04;;;;;;;2.20;1.63;;;6.40;99.90;;;;;;5073315;28;20037;-66
2023/12/23 12:41:31;;;;;;;1.80;1.50;;;6.50;99.90;;;;;;5073451;28;20056;-67
2023/12/23 12:43:57;;;;;;;1.98;1.58;;;6.50;99.90;;;;;;5073537;28;20446;-67
2023/12/23 12:46:23;;;;;;;1.40;1.30;;;6.60;99.90;;;;;;5073316;28;20051;-65
2023/12/23 12:48:49;;;;;;;2.30;1.48;;;6.50;99.90;;;;;;5073717;28;20080;-66